createdAt,value
2022-09-02T00:01:45.407Z,100539.53
2022-09-02T00:04:15.430Z,100540.63
2022-09-02T00:06:43.200Z,100531.81
2022-09-02T00:09:13.052Z,100523.75
2022-09-02T00:11:41.589Z,100537.06
2022-09-02T00:14:13.042Z,100507.69
2022-09-02T00:16:41.943Z,100527.31
2022-09-02T00:19:08.679Z,100525.38
2022-09-02T00:21:35.882Z,100530.97
2022-09-02T00:24:05.178Z,100527.00
2022-09-02T00:26:31.895Z,100522.81
2022-09-02T00:28:58.614Z,100518.31
2022-09-02T00:31:27.638Z,100450.81
2022-09-02T00:33:55.014Z,100518.22
2022-09-02T00:36:22.295Z,100515.63
2022-09-02T00:38:49.142Z,100516.50
2022-09-02T00:41:15.720Z,100520.03
2022-09-02T00:43:42.589Z,100522.81
2022-09-02T00:46:09.442Z,100517.47
2022-09-02T00:48:41.395Z,100520.03
2022-09-02T00:51:11.734Z,100517.56
2022-09-02T00:53:40.807Z,100528.56
2022-09-02T00:56:14.041Z,100514.63
2022-09-02T00:58:43.473Z,100513.66
2022-09-02T01:01:11.776Z,100513.78
2022-09-02T01:03:40.580Z,100517.53
2022-09-02T01:06:08.302Z,100510.09
2022-09-02T01:08:39.335Z,100491.72
2022-09-02T01:11:07.185Z,100508.31
2022-09-02T01:13:39.434Z,100510.69
2022-09-02T01:16:31.151Z,100505.88
2022-09-02T01:19:02.559Z,100516.00
2022-09-02T01:21:29.172Z,100513.41
2022-09-02T01:23:55.899Z,100518.03
2022-09-02T01:26:22.812Z,100511.06
2022-09-02T01:28:49.393Z,100498.06
2022-09-02T01:31:16.061Z,100509.34
2022-09-02T01:33:42.842Z,100507.00
2022-09-02T01:36:11.948Z,100499.94
2022-09-02T01:38:38.839Z,100509.69
2022-09-02T01:41:05.820Z,100504.88
2022-09-02T01:43:32.395Z,100487.66
2022-09-02T01:46:00.162Z,100506.47
2022-09-02T01:48:27.210Z,100509.16
2022-09-02T01:51:01.312Z,100506.25
2022-09-02T01:53:29.120Z,100499.19
2022-09-02T01:55:55.911Z,100479.63
2022-09-02T01:58:23.329Z,100508.91
2022-09-02T02:00:50.350Z,100491.69
2022-09-02T02:03:17.607Z,100503.78
2022-09-02T02:05:45.070Z,100511.06
2022-09-02T02:08:11.764Z,100502.94
2022-09-02T02:10:41.680Z,100505.72
2022-09-02T02:13:08.489Z,100502.28
2022-09-02T02:15:38.680Z,100506.78
2022-09-02T02:18:05.402Z,100500.09
2022-09-02T02:20:32.095Z,100504.69
2022-09-02T02:22:58.655Z,100511.13
2022-09-02T02:25:25.504Z,100500.00
2022-09-02T02:27:52.781Z,100511.66
2022-09-02T02:30:20.300Z,100505.34
2022-09-02T02:32:47.357Z,100498.53
2022-09-02T02:35:17.079Z,100499.50
2022-09-02T02:37:44.651Z,100480.16
2022-09-02T02:40:11.942Z,100514.81
2022-09-02T02:42:39.626Z,100508.59
2022-09-02T02:45:10.138Z,100507.63
2022-09-02T02:47:43.370Z,100507.38
2022-09-02T02:50:12.220Z,100502.28
2022-09-02T02:52:41.179Z,100504.75
2022-09-02T02:55:10.107Z,100506.66
2022-09-02T02:57:39.062Z,100507.63
2022-09-02T03:00:15.655Z,100498.34
2022-09-02T03:02:42.303Z,100494.72
2022-09-02T03:05:11.129Z,100508.09
2022-09-02T03:07:37.669Z,100495.13
2022-09-02T03:10:08.310Z,100495.78
2022-09-02T03:12:36.735Z,100493.97
2022-09-02T03:15:04.744Z,100509.34
2022-09-02T03:17:31.511Z,100504.97
2022-09-02T03:19:59.399Z,100500.72
2022-09-02T03:22:27.415Z,100478.81
2022-09-02T03:24:54.191Z,100494.94
2022-09-02T03:27:20.718Z,100465.84
2022-09-02T03:29:47.456Z,100492.69
2022-09-02T03:32:14.735Z,100491.28
2022-09-02T03:34:41.870Z,100472.69
2022-09-02T03:37:09.783Z,100486.59
2022-09-02T03:39:39.712Z,100488.63
2022-09-02T03:42:06.887Z,100493.97
2022-09-02T03:44:41.687Z,100485.31
2022-09-02T03:47:08.922Z,100463.28
2022-09-02T03:49:36.194Z,100489.03
2022-09-02T03:52:03.020Z,100481.25
2022-09-02T03:54:29.560Z,100478.38
2022-09-02T03:56:56.128Z,100486.19
2022-09-02T03:59:22.703Z,100482.88
2022-09-02T04:01:49.335Z,100485.03
2022-09-02T04:04:19.681Z,100473.00
2022-09-02T04:06:48.902Z,100463.94
2022-09-02T04:09:15.471Z,100486.38
2022-09-02T04:11:42.914Z,100477.22
2022-09-02T04:14:09.908Z,100485.75
2022-09-02T04:16:37.829Z,100462.66
2022-09-02T04:19:05.943Z,100459.22
2022-09-02T04:21:35.208Z,100484.03
2022-09-02T04:24:01.846Z,100483.81
2022-09-02T04:26:28.446Z,100477.72
2022-09-02T04:28:55.047Z,100489.06
2022-09-02T04:31:25.798Z,100484.22
2022-09-02T04:33:53.356Z,100486.59
2022-09-02T04:36:20.911Z,100479.53
2022-09-02T04:38:47.869Z,100480.50
2022-09-02T04:41:18.575Z,100487.66
2022-09-02T04:43:45.346Z,100488.31
2022-09-02T04:46:16.591Z,100486.59
2022-09-02T04:48:45.336Z,100494.50
2022-09-02T04:51:16.618Z,100490.88
2022-09-02T04:53:44.792Z,100473.13
2022-09-02T04:56:15.129Z,100466.94
2022-09-02T04:58:44.447Z,100485.94
2022-09-02T05:01:17.986Z,100479.03
2022-09-02T05:03:45.563Z,100486.59
2022-09-02T05:06:15.701Z,100485.72
2022-09-02T05:08:42.815Z,100487.22
2022-09-02T05:11:13.462Z,100483.81
2022-09-02T05:13:41.691Z,100486.38
2022-09-02T05:16:08.517Z,100492.06
2022-09-02T05:18:35.289Z,100493.34
2022-09-02T05:21:06.639Z,100488.53
2022-09-02T05:23:34.669Z,100492.06
2022-09-02T05:26:07.893Z,100501.06
2022-09-02T05:28:34.890Z,100495.72
2022-09-02T05:31:12.802Z,100491.72
2022-09-02T05:33:43.186Z,100495.13
2022-09-02T05:36:20.458Z,100495.13
2022-09-02T05:38:47.680Z,100491.50
2022-09-02T05:41:18.288Z,100472.50
2022-09-02T05:43:45.801Z,100489.38
2022-09-02T05:46:17.668Z,100495.00
2022-09-02T05:49:04.643Z,100473.09
2022-09-02T05:51:32.555Z,100469.84
2022-09-02T05:54:01.119Z,100485.66
2022-09-02T05:56:28.125Z,100493.88
2022-09-02T05:58:58.974Z,100495.66
2022-09-02T06:01:27.526Z,100488.97
2022-09-02T06:03:54.129Z,100494.94
2022-09-02T06:06:23.035Z,100464.81
2022-09-02T06:08:50.566Z,100489.69
2022-09-02T06:11:18.169Z,100467.63
2022-09-02T06:13:46.179Z,100486.88
2022-09-02T06:16:19.390Z,100497.91
2022-09-02T06:18:50.311Z,100489.16
2022-09-02T06:21:17.427Z,100485.72
2022-09-02T06:23:44.948Z,100490.13
2022-09-02T06:26:13.191Z,100488.94
2022-09-02T06:28:40.826Z,100480.16
2022-09-02T06:31:10.416Z,100492.97
2022-09-02T06:33:38.133Z,100496.00
2022-09-02T06:36:12.241Z,100496.88
2022-09-02T06:38:45.164Z,100481.16
2022-09-02T06:41:16.953Z,100490.81
2022-09-02T06:43:43.706Z,100491.94
2022-09-02T06:46:20.180Z,100474.41
2022-09-02T06:48:50.070Z,100501.69
2022-09-02T06:51:22.129Z,100488.94
2022-09-02T06:53:48.686Z,100480.28
2022-09-02T06:56:15.806Z,100486.13
2022-09-02T06:58:42.468Z,100479.13
2022-09-02T07:01:17.161Z,100498.66
2022-09-02T07:04:04.097Z,100476.63
2022-09-02T07:06:37.204Z,100477.56
2022-09-02T07:09:08.996Z,100460.16
2022-09-02T07:11:36.827Z,100485.34
2022-09-02T07:14:04.009Z,100470.28
2022-09-02T07:16:34.318Z,100466.69
2022-09-02T07:19:01.368Z,100470.53
2022-09-02T07:21:29.183Z,100479.19
2022-09-02T07:23:56.208Z,100477.78
2022-09-02T07:26:22.869Z,100479.34
2022-09-02T07:28:49.840Z,100479.91
2022-09-02T07:31:17.083Z,100477.06
2022-09-02T07:33:45.029Z,100469.66
2022-09-02T07:36:16.718Z,100454.47
2022-09-02T07:38:43.320Z,100476.44
2022-09-02T07:41:10.591Z,100478.81
2022-09-02T07:43:38.689Z,100476.44
2022-09-02T07:46:05.881Z,100478.06
2022-09-02T07:48:33.447Z,100470.22
2022-09-02T07:51:00.203Z,100460.81
2022-09-02T07:53:27.398Z,100464.41
2022-09-02T07:55:54.020Z,100476.31
2022-09-02T07:58:22.466Z,100446.81
2022-09-02T08:00:50.490Z,100469.84
2022-09-02T08:03:18.003Z,100469.88
2022-09-02T08:05:47.146Z,100451.94
2022-09-02T08:08:15.875Z,100464.03
2022-09-02T08:10:43.272Z,100460.41
2022-09-02T08:13:10.604Z,100466.97
2022-09-02T08:15:38.879Z,100461.16
2022-09-02T08:18:08.583Z,100441.09
2022-09-02T08:20:44.420Z,100444.53
2022-09-02T08:23:18.545Z,100461.59
2022-09-02T08:25:52.485Z,100467.66
2022-09-02T08:28:19.114Z,100459.25
2022-09-02T08:30:46.058Z,100444.25
2022-09-02T08:33:12.612Z,100447.03
2022-09-02T08:35:39.322Z,100448.31
2022-09-02T08:38:06.040Z,100457.84
2022-09-02T08:40:39.540Z,100467.34
2022-09-02T08:43:32.380Z,100456.25
2022-09-02T08:46:05.223Z,100452.78
2022-09-02T08:48:45.315Z,100430.81
2022-09-02T08:51:27.079Z,100447.69
2022-09-02T08:54:30.591Z,100447.34
2022-09-02T08:56:58.125Z,100430.03
2022-09-02T08:59:27.792Z,100442.69
2022-09-02T09:02:32.907Z,100442.69
2022-09-02T09:05:14.821Z,100451.81
2022-09-02T09:08:04.870Z,100419.22
2022-09-02T09:10:57.033Z,100439.94
2022-09-02T09:13:47.185Z,100431.00
2022-09-02T09:16:30.295Z,100438.94
2022-09-02T09:19:11.735Z,100426.44
2022-09-02T09:21:40.097Z,100411.53
2022-09-02T09:24:28.138Z,100427.34
2022-09-02T09:26:55.332Z,100402.91
2022-09-02T09:29:22.416Z,100416.94
2022-09-02T09:31:56.055Z,100412.84
2022-09-02T09:34:22.967Z,100411.84
2022-09-02T09:36:56.154Z,100402.84
2022-09-02T09:39:24.757Z,100402.09
2022-09-02T09:41:56.895Z,100401.47
2022-09-02T09:44:40.788Z,100401.88
2022-09-02T09:47:19.598Z,100396.91
2022-09-02T09:49:51.441Z,100393.84
2022-09-02T09:52:29.684Z,100369.72
2022-09-02T09:55:12.620Z,100395.78
2022-09-02T09:57:41.275Z,100378.13
2022-09-02T10:00:22.261Z,100385.06
2022-09-02T10:02:55.401Z,100393.44
2022-09-02T10:05:24.799Z,100390.03
2022-09-02T10:08:03.548Z,100377.09
2022-09-02T10:10:32.907Z,100386.28
2022-09-02T10:16:00.236Z,100372.94
2022-09-02T10:18:34.841Z,100376.44
2022-09-02T10:21:24.585Z,100374.47
2022-09-02T10:24:09.452Z,100374.94
2022-09-02T10:26:48.198Z,100374.16
2022-09-02T10:29:34.882Z,100361.41
2022-09-02T10:32:36.148Z,100383.72
2022-09-02T10:35:17.619Z,100365.66
2022-09-02T10:38:03.808Z,100372.88
2022-09-02T10:40:45.746Z,100356.16
2022-09-02T10:43:50.268Z,100348.84
2022-09-02T10:46:25.426Z,100330.75
2022-09-02T10:49:07.751Z,100352.81
2022-09-02T10:51:43.384Z,100347.91
2022-09-02T10:54:40.065Z,100343.22
2022-09-02T10:57:14.415Z,100338.50
2022-09-02T10:59:52.536Z,100318.50
2022-09-02T11:02:35.342Z,100327.16
2022-09-02T11:05:16.721Z,100333.97
2022-09-02T11:07:46.347Z,100340.41
2022-09-02T11:10:22.371Z,100333.13
2022-09-02T11:13:05.243Z,100333.28
2022-09-02T11:15:47.529Z,100323.94
2022-09-02T11:18:42.088Z,100298.94
2022-09-02T11:21:47.226Z,100310.38
2022-09-02T11:24:20.085Z,100317.72
2022-09-02T11:26:56.401Z,100306.06
2022-09-02T11:29:44.829Z,100308.97
2022-09-02T11:32:29.551Z,100307.00
2022-09-02T11:34:59.657Z,100295.09
2022-09-02T11:38:03.748Z,100304.81
2022-09-02T11:40:39.201Z,100293.25
2022-09-02T11:43:29.690Z,100293.47
2022-09-02T11:46:33.060Z,100276.75
2022-09-02T11:49:26.706Z,100298.34
2022-09-02T11:51:59.113Z,100280.25
2022-09-02T11:54:35.991Z,100274.25
2022-09-02T11:57:05.807Z,100273.03
2022-09-02T11:59:50.519Z,100286.81
2022-09-02T12:02:50.971Z,100283.84
2022-09-02T12:05:32.782Z,100274.28
2022-09-02T12:08:04.296Z,100265.91
2022-09-02T12:10:43.506Z,100249.19
2022-09-02T12:13:11.419Z,100269.25
2022-09-02T12:15:40.738Z,100264.31
2022-09-02T12:18:28.444Z,100271.13
2022-09-02T12:20:58.305Z,100260.56
2022-09-02T12:23:46.850Z,100263.63
2022-09-02T12:26:15.990Z,100261.44
2022-09-02T12:28:47.124Z,100239.28
2022-09-02T12:31:28.655Z,100256.50
2022-09-02T12:33:55.208Z,100255.00
2022-09-02T12:36:36.652Z,100267.31
2022-09-02T12:39:28.348Z,100252.91
2022-09-02T12:41:58.103Z,100246.91
2022-09-02T12:44:44.879Z,100243.38
2022-09-02T12:47:24.264Z,100243.41
2022-09-02T12:50:04.943Z,100250.03
2022-09-02T12:52:34.251Z,100246.94
2022-09-02T12:55:14.452Z,100229.34
2022-09-02T12:57:43.584Z,100239.41
2022-09-02T13:00:28.383Z,100211.75
2022-09-02T13:03:26.276Z,100220.38
2022-09-02T13:06:06.428Z,100214.25
2022-09-02T13:09:12.753Z,100217.44
2022-09-02T13:12:07.171Z,100209.75
2022-09-02T13:14:58.540Z,100217.88
2022-09-02T13:17:46.644Z,100205.97
2022-09-02T13:20:45.488Z,100178.13
2022-09-02T13:23:31.248Z,100205.59
2022-09-02T13:26:50.865Z,100200.28
2022-09-02T13:29:44.756Z,100201.97
2022-09-02T13:32:20.595Z,100202.81
2022-09-02T13:34:49.837Z,100161.19
2022-09-02T13:37:40.967Z,100185.72
2022-09-02T13:40:26.806Z,100188.13
2022-09-02T13:42:55.318Z,100183.09
2022-09-02T13:45:25.293Z,100171.53
2022-09-02T13:47:57.759Z,100176.25
2022-09-02T13:50:30.394Z,100155.22
2022-09-02T13:55:54.082Z,100144.09
2022-09-02T13:58:29.376Z,100162.88
2022-09-02T14:01:01.654Z,100141.88
2022-09-02T14:03:32.780Z,100152.47
2022-09-02T14:06:00.838Z,100142.69
2022-09-02T14:08:29.313Z,100147.47
2022-09-02T14:10:56.663Z,100147.66
2022-09-02T14:13:23.668Z,100136.78
2022-09-02T14:15:50.495Z,100110.06
2022-09-02T14:18:18.886Z,100129.13
2022-09-02T14:21:01.354Z,100095.16
2022-09-02T14:23:33.394Z,100119.31
2022-09-02T14:26:01.832Z,100125.41
2022-09-02T14:28:34.319Z,100113.41
2022-09-02T14:31:04.385Z,100109.13
2022-09-02T14:33:36.537Z,100100.47
2022-09-02T14:36:08.485Z,100092.25
2022-09-02T14:38:47.074Z,100115.56
2022-09-02T14:41:28.174Z,100099.00
2022-09-02T14:44:00.413Z,100095.25
2022-09-02T14:46:33.625Z,100082.75
2022-09-02T14:49:09.779Z,100086.31
2022-09-02T14:51:45.039Z,100085.47
2022-09-02T14:54:11.740Z,100029.38
2022-09-02T14:56:50.355Z,100091.34
2022-09-02T14:59:17.912Z,100086.59
2022-09-02T15:01:50.661Z,100076.41
2022-09-02T15:04:19.457Z,100077.41
2022-09-02T15:06:47.115Z,100068.94
2022-09-02T15:09:18.083Z,100071.81
2022-09-02T15:11:51.575Z,100062.53
2022-09-02T15:14:18.136Z,100052.56
2022-09-02T15:16:45.062Z,100063.44
2022-09-02T15:19:11.745Z,100064.66
2022-09-02T15:21:38.339Z,100042.66
2022-09-02T15:24:05.375Z,100054.84
2022-09-02T15:26:31.938Z,100049.78
2022-09-02T15:28:58.476Z,100048.91
2022-09-02T15:31:26.616Z,100044.22
2022-09-02T15:33:53.411Z,100045.91
2022-09-02T15:36:21.227Z,100028.03
2022-09-02T15:38:47.808Z,100050.16
2022-09-02T15:41:17.854Z,100060.34
2022-09-02T15:43:46.073Z,100058.00
2022-09-02T15:46:21.897Z,100064.63
2022-09-02T15:48:49.222Z,100050.28
2022-09-02T15:51:18.424Z,100038.25
2022-09-02T15:53:45.012Z,100053.16
2022-09-02T15:56:20.477Z,100053.03
2022-09-02T15:58:47.637Z,100038.78
2022-09-02T16:01:14.583Z,100021.38
2022-09-02T16:03:41.246Z,100046.94
2022-09-02T16:06:11.016Z,100050.50
2022-09-02T16:08:37.720Z,100030.81
2022-09-02T16:11:07.062Z,100033.88
2022-09-02T16:13:35.016Z,100036.22
2022-09-02T16:16:09.358Z,100040.81
2022-09-02T16:18:37.289Z,100027.63
2022-09-02T16:21:04.810Z,100036.94
2022-09-02T16:23:31.916Z,100037.78
2022-09-02T16:26:10.464Z,100037.78
2022-09-02T16:28:38.604Z,100015.63
2022-09-02T16:31:07.734Z,100034.06
2022-09-02T16:33:36.009Z,100032.38
2022-09-02T16:36:03.712Z,100031.19
2022-09-02T16:38:30.287Z,100009.72
2022-09-02T16:40:58.436Z,100026.78
2022-09-02T16:43:25.895Z,100005.66
2022-09-02T16:45:53.639Z,100035.41
2022-09-02T16:48:25.634Z,100038.13
2022-09-02T16:50:52.508Z,100030.38
2022-09-02T16:53:19.212Z,100022.59
2022-09-02T16:55:47.059Z,100021.09
2022-09-02T16:58:16.703Z,100022.94
2022-09-02T17:00:43.348Z,100021.41
2022-09-02T17:03:10.971Z,100011.44
2022-09-02T17:05:37.534Z,100026.81
2022-09-02T17:08:05.344Z,100019.00
2022-09-02T17:10:34.434Z,100027.66
2022-09-02T17:13:01.506Z,100026.97
2022-09-02T17:15:30.333Z,100031.00
2022-09-02T17:17:56.959Z,100028.31
2022-09-02T17:20:23.819Z,100032.88
2022-09-02T17:22:51.426Z,100015.75
2022-09-02T17:25:18.316Z,100025.22
2022-09-02T17:27:44.964Z,100040.94
2022-09-02T17:30:12.406Z,100029.97
2022-09-02T17:32:39.805Z,100037.22
2022-09-02T17:35:08.892Z,100039.09
2022-09-02T17:37:37.514Z,100042.59
2022-09-02T17:40:06.619Z,100013.94
2022-09-02T17:42:34.090Z,100035.13
2022-09-02T17:45:01.301Z,100038.28
2022-09-02T17:47:31.699Z,100018.66
2022-09-02T17:49:59.187Z,100040.63
2022-09-02T17:52:25.938Z,100027.41
2022-09-02T17:54:54.436Z,100030.44
2022-09-02T17:57:28.230Z,100031.78
2022-09-02T18:00:19.192Z,100030.41
2022-09-02T18:03:15.332Z,100034.41
2022-09-02T18:05:43.517Z,100027.16
2022-09-02T18:08:33.831Z,100041.44
2022-09-02T18:11:05.311Z,100032.13
2022-09-02T18:13:55.215Z,100028.38
2022-09-02T18:16:32.238Z,100033.22
2022-09-02T18:19:49.952Z,100037.59
2022-09-02T18:22:35.802Z,100025.34
2022-09-02T18:25:33.431Z,100048.94
2022-09-02T18:28:09.100Z,100041.00
2022-09-02T18:30:49.309Z,100049.16
2022-09-02T18:33:25.878Z,100046.63
2022-09-02T18:35:52.405Z,100051.50
2022-09-02T18:39:06.441Z,100048.44
2022-09-02T18:42:06.619Z,100047.88
2022-09-02T18:44:43.618Z,100041.94
2022-09-02T18:47:14.953Z,100052.06
2022-09-02T18:49:43.704Z,100048.13
2022-09-02T18:52:11.505Z,100053.84
2022-09-02T18:54:51.683Z,100049.69
2022-09-02T18:57:18.255Z,100058.94
2022-09-02T18:59:57.173Z,100053.84
2022-09-02T19:02:50.288Z,100068.47
2022-09-02T19:05:22.184Z,100063.25
2022-09-02T19:08:15.870Z,100061.13
2022-09-02T19:10:42.396Z,100062.28
2022-09-02T19:13:09.158Z,100059.72
2022-09-02T19:15:35.921Z,100062.72
2022-09-02T19:18:03.427Z,100060.66
2022-09-02T19:20:30.124Z,100066.34
2022-09-02T19:23:02.070Z,100060.25
2022-09-02T19:25:30.846Z,100060.41
2022-09-02T19:28:02.543Z,100052.41
2022-09-02T19:30:35.926Z,100068.94
2022-09-02T19:33:06.740Z,100056.22
2022-09-02T19:35:35.991Z,100074.66
2022-09-02T19:38:02.926Z,100055.44
2022-09-02T19:40:36.452Z,100045.56
2022-09-02T19:43:05.233Z,100073.47
2022-09-02T19:45:36.142Z,100068.06
2022-09-02T19:48:06.941Z,100065.69
2022-09-02T19:50:36.184Z,100050.00
2022-09-02T19:53:02.859Z,100066.41
2022-09-02T19:55:29.878Z,100067.53
2022-09-02T19:57:56.382Z,100041.25
2022-09-02T20:00:23.098Z,100066.03
2022-09-02T20:02:51.124Z,100052.72
2022-09-02T20:05:17.755Z,100063.78
2022-09-02T20:07:44.328Z,100069.31
2022-09-02T20:10:10.950Z,100065.31
2022-09-02T20:12:37.544Z,100047.97
2022-09-02T20:15:06.780Z,100073.44
2022-09-02T20:17:33.459Z,100069.75
2022-09-02T20:20:11.858Z,100072.03
2022-09-02T20:22:38.437Z,100069.94
2022-09-02T20:25:05.292Z,100048.19
2022-09-02T20:28:04.737Z,100075.06
2022-09-02T20:30:35.999Z,100073.66
2022-09-02T20:33:22.398Z,100068.72
2022-09-02T20:36:03.868Z,100080.19
2022-09-02T20:38:45.258Z,100068.75
2022-09-02T20:41:37.996Z,100087.03
2022-09-02T20:44:13.646Z,100077.81
2022-09-02T20:46:59.147Z,100083.09
2022-09-02T20:49:54.229Z,100076.44
2022-09-02T20:52:25.012Z,100078.41
2022-09-02T20:55:03.893Z,100079.13
2022-09-02T20:58:19.340Z,100083.34
2022-09-02T21:01:08.615Z,100066.94
2022-09-02T21:03:52.917Z,100065.38
2022-09-02T21:06:24.301Z,100075.00
2022-09-02T21:09:03.187Z,100081.53
2022-09-02T21:11:38.130Z,100079.53
2022-09-02T21:14:13.542Z,100071.16
2022-09-02T21:16:49.009Z,100055.16
2022-09-02T21:19:36.414Z,100071.69
2022-09-02T21:22:23.367Z,100061.78
2022-09-02T21:25:02.957Z,100072.28
2022-09-02T21:27:45.221Z,100076.34
2022-09-02T21:30:18.155Z,100070.97
2022-09-02T21:32:53.643Z,100074.91
2022-09-02T21:35:24.326Z,100042.44
2022-09-02T21:38:02.612Z,100068.03
2022-09-02T21:40:59.829Z,100062.34
2022-09-02T21:43:32.337Z,100078.78
2022-09-02T21:46:22.095Z,100061.88
2022-09-02T21:48:59.079Z,100055.25
2022-09-02T21:51:39.053Z,100082.97
2022-09-02T21:54:29.081Z,100088.59
2022-09-02T21:57:29.552Z,100086.28
2022-09-02T22:00:02.946Z,100083.44
2022-09-02T22:02:50.195Z,100088.31
2022-09-02T22:05:32.141Z,100065.47
2022-09-02T22:08:17.303Z,100082.84
2022-09-02T22:10:59.283Z,100059.16
2022-09-02T22:13:30.012Z,100090.38
2022-09-02T22:16:05.034Z,100081.03
2022-09-02T22:18:41.020Z,100079.41
2022-09-02T22:21:31.406Z,100080.03
2022-09-02T22:24:00.960Z,100079.47
2022-09-02T22:26:38.634Z,100073.03
2022-09-02T22:29:13.298Z,100073.44
2022-09-02T22:31:43.109Z,100063.22
2022-09-02T22:34:10.598Z,100075.03
2022-09-02T22:36:49.787Z,100060.31
2022-09-02T22:39:17.401Z,100069.06
2022-09-02T22:41:56.165Z,100071.41
2022-09-02T22:44:49.362Z,100066.31
2022-09-02T22:47:39.088Z,100070.09
2022-09-02T22:50:29.147Z,100041.75
2022-09-02T22:52:55.988Z,100062.16
2022-09-02T22:55:29.379Z,100040.31
2022-09-02T22:58:30.889Z,100056.22
2022-09-02T23:01:05.649Z,100071.09
2022-09-02T23:03:43.044Z,100068.78
2022-09-02T23:06:30.258Z,100070.09
2022-09-02T23:09:05.638Z,100049.78
2022-09-02T23:11:53.219Z,100071.47
2022-09-02T23:14:32.009Z,100076.19
2022-09-02T23:17:20.785Z,100050.31
2022-09-02T23:19:50.036Z,100073.56
2022-09-02T23:22:43.150Z,100052.41
2022-09-02T23:25:50.956Z,100064.53
2022-09-02T23:28:19.205Z,100069.66
2022-09-02T23:31:01.143Z,100066.50
2022-09-02T23:33:51.340Z,100065.78
2022-09-02T23:36:35.239Z,100042.19
2022-09-02T23:39:19.051Z,100047.03
2022-09-02T23:41:46.210Z,100062.38
2022-09-02T23:44:12.843Z,100067.00
2022-09-02T23:46:57.994Z,100053.59
2022-09-02T23:49:49.330Z,100059.34
2022-09-02T23:52:34.056Z,100069.06
2022-09-02T23:55:21.644Z,100065.66
2022-09-02T23:58:06.906Z,100059.69
